sensor_id;sensor_type;location;lat;lon;timestamp;pressure;altitude;pressure_sealevel;temperature;humidity
2397;BME280;1209;48.410;9.054;2023-08-06T00:00:27;95572.59;;;15.73;100.00
2397;BME280;1209;48.410;9.054;2023-08-06T00:02:52;95561.97;;;15.80;100.00
2397;BME280;1209;48.410;9.054;2023-08-06T00:05:18;95569.50;;;15.77;100.00
2397;BME280;1209;48.410;9.054;2023-08-06T00:07:45;95569.69;;;15.63;100.00
2397;BME280;1209;48.410;9.054;2023-08-06T00:10:11;95562.63;;;15.76;100.00
2397;BME280;1209;48.410;9.054;2023-08-06T00:12:36;95561.97;;;15.80;100.00
2397;BME280;1209;48.410;9.054;2023-08-06T00:15:01;95540.06;;;15.68;100.00
2397;BME280;1209;48.410;9.054;2023-08-06T00:17:27;95551.19;;;15.70;100.00
2397;BME280;1209;48.410;9.054;2023-08-06T00:19:52;95546.94;;;15.69;100.00
2397;BME280;1209;48.410;9.054;2023-08-06T00:22:18;95549.81;;;15.79;100.00
2397;BME280;1209;48.410;9.054;2023-08-06T00:24:43;95555.88;;;15.68;100.00
2397;BME280;1209;48.410;9.054;2023-08-06T00:27:08;95564.78;;;15.67;100.00
2397;BME280;1209;48.410;9.054;2023-08-06T00:29:34;95556.38;;;15.58;100.00
2397;BME280;1209;48.410;9.054;2023-08-06T00:31:59;95557.69;;;15.49;100.00
2397;BME280;1209;48.410;9.054;2023-08-06T00:34:24;95555.63;;;15.51;100.00
2397;BME280;1209;48.410;9.054;2023-08-06T00:36:49;95546.22;;;15.43;100.00
2397;BME280;1209;48.410;9.054;2023-08-06T00:39:15;95540.50;;;15.47;100.00
2397;BME280;1209;48.410;9.054;2023-08-06T00:41:40;95544.03;;;15.40;100.00
2397;BME280;1209;48.410;9.054;2023-08-06T00:44:05;95538.19;;;15.38;100.00
2397;BME280;1209;48.410;9.054;2023-08-06T00:46:32;95541.91;;;15.49;100.00
2397;BME280;1209;48.410;9.054;2023-08-06T00:48:58;95530.44;;;15.43;100.00
2397;BME280;1209;48.410;9.054;2023-08-06T00:51:24;95527.00;;;15.43;100.00
2397;BME280;1209;48.410;9.054;2023-08-06T00:53:52;95517.94;;;15.39;100.00
2397;BME280;1209;48.410;9.054;2023-08-06T00:56:17;95516.72;;;15.53;100.00
2397;BME280;1209;48.410;9.054;2023-08-06T00:58:43;95515.53;;;15.37;100.00
2397;BME280;1209;48.410;9.054;2023-08-06T01:01:09;95522.06;;;15.35;100.00
2397;BME280;1209;48.410;9.054;2023-08-06T01:03:35;95520.00;;;15.37;100.00
2397;BME280;1209;48.410;9.054;2023-08-06T01:06:00;95518.13;;;15.26;100.00
2397;BME280;1209;48.410;9.054;2023-08-06T01:08:32;95510.22;;;15.26;100.00
2397;BME280;1209;48.410;9.054;2023-08-06T01:13:38;95519.50;;;15.28;100.00
2397;BME280;1209;48.410;9.054;2023-08-06T01:16:07;95506.78;;;15.25;100.00
2397;BME280;1209;48.410;9.054;2023-08-06T01:18:33;95508.84;;;15.23;100.00
2397;BME280;1209;48.410;9.054;2023-08-06T01:20:59;95513.44;;;15.28;100.00
2397;BME280;1209;48.410;9.054;2023-08-06T01:23:24;95507.59;;;15.26;100.00
2397;BME280;1209;48.410;9.054;2023-08-06T01:29:06;95501.66;;;15.30;100.00
2397;BME280;1209;48.410;9.054;2023-08-06T01:31:43;95509.78;;;15.29;100.00
2397;BME280;1209;48.410;9.054;2023-08-06T01:34:13;95504.31;;;15.30;100.00
2397;BME280;1209;48.410;9.054;2023-08-06T01:36:38;95512.06;;;15.25;100.00
2397;BME280;1209;48.410;9.054;2023-08-06T01:39:05;95511.56;;;15.17;100.00
2397;BME280;1209;48.410;9.054;2023-08-06T01:41:30;95505.41;;;15.23;100.00
2397;BME280;1209;48.410;9.054;2023-08-06T01:43:55;95492.72;;;15.20;100.00
2397;BME280;1209;48.410;9.054;2023-08-06T01:46:20;95496.13;;;15.20;100.00
2397;BME280;1209;48.410;9.054;2023-08-06T01:48:46;95487.72;;;15.30;100.00
2397;BME280;1209;48.410;9.054;2023-08-06T01:51:11;95487.13;;;15.28;100.00
2397;BME280;1209;48.410;9.054;2023-08-06T01:53:36;95480.84;;;15.29;100.00
2397;BME280;1209;48.410;9.054;2023-08-06T01:56:02;95470.69;;;15.32;100.00
2397;BME280;1209;48.410;9.054;2023-08-06T01:58:27;95465.78;;;15.36;100.00
2397;BME280;1209;48.410;9.054;2023-08-06T02:00:52;95462.56;;;15.34;100.00
2397;BME280;1209;48.410;9.054;2023-08-06T02:03:18;95467.69;;;15.29;100.00
2397;BME280;1209;48.410;9.054;2023-08-06T02:05:43;95470.72;;;15.14;100.00
2397;BME280;1209;48.410;9.054;2023-08-06T02:08:08;95470.44;;;15.04;100.00
2397;BME280;1209;48.410;9.054;2023-08-06T02:10:34;95492.72;;;15.01;100.00
2397;BME280;1209;48.410;9.054;2023-08-06T02:12:59;95487.69;;;15.00;100.00
2397;BME280;1209;48.410;9.054;2023-08-06T02:15:24;95474.63;;;14.93;100.00
2397;BME280;1209;48.410;9.054;2023-08-06T02:17:50;95484.41;;;14.86;100.00
2397;BME280;1209;48.410;9.054;2023-08-06T02:20:15;95475.59;;;14.80;100.00
2397;BME280;1209;48.410;9.054;2023-08-06T02:22:40;95485.50;;;14.78;100.00
2397;BME280;1209;48.410;9.054;2023-08-06T02:25:06;95468.84;;;14.85;100.00
2397;BME280;1209;48.410;9.054;2023-08-06T02:27:31;95462.28;;;14.94;100.00
2397;BME280;1209;48.410;9.054;2023-08-06T02:29:57;95458.53;;;15.01;100.00
2397;BME280;1209;48.410;9.054;2023-08-06T02:32:22;95447.88;;;14.96;100.00
2397;BME280;1209;48.410;9.054;2023-08-06T02:34:47;95451.34;;;15.08;100.00
2397;BME280;1209;48.410;9.054;2023-08-06T02:37:12;95452.31;;;15.14;100.00
2397;BME280;1209;48.410;9.054;2023-08-06T02:39:38;95449.25;;;15.17;100.00
2397;BME280;1209;48.410;9.054;2023-08-06T02:42:06;95443.75;;;15.19;100.00
2397;BME280;1209;48.410;9.054;2023-08-06T02:44:31;95450.97;;;15.23;100.00
2397;BME280;1209;48.410;9.054;2023-08-06T02:46:58;95442.06;;;15.24;100.00
2397;BME280;1209;48.410;9.054;2023-08-06T02:49:23;95438.75;;;15.29;100.00
2397;BME280;1209;48.410;9.054;2023-08-06T02:51:48;95441.63;;;15.27;100.00
2397;BME280;1209;48.410;9.054;2023-08-06T02:54:14;95431.22;;;15.32;100.00
2397;BME280;1209;48.410;9.054;2023-08-06T02:56:43;95429.28;;;15.39;100.00
2397;BME280;1209;48.410;9.054;2023-08-06T02:59:09;95437.28;;;15.33;100.00
2397;BME280;1209;48.410;9.054;2023-08-06T03:01:34;95422.19;;;15.40;100.00
2397;BME280;1209;48.410;9.054;2023-08-06T03:04:01;95420.72;;;15.44;100.00
2397;BME280;1209;48.410;9.054;2023-08-06T03:06:26;95417.28;;;15.43;100.00
2397;BME280;1209;48.410;9.054;2023-08-06T03:08:51;95408.72;;;15.48;100.00
2397;BME280;1209;48.410;9.054;2023-08-06T03:11:17;95399.56;;;15.51;100.00
2397;BME280;1209;48.410;9.054;2023-08-06T03:13:42;95406.31;;;15.47;100.00
2397;BME280;1209;48.410;9.054;2023-08-06T03:16:07;95396.03;;;15.57;100.00
2397;BME280;1209;48.410;9.054;2023-08-06T03:18:33;95400.22;;;15.64;100.00
2397;BME280;1209;48.410;9.054;2023-08-06T03:20:58;95401.22;;;15.63;100.00
2397;BME280;1209;48.410;9.054;2023-08-06T03:23:23;95411.09;;;15.68;100.00
2397;BME280;1209;48.410;9.054;2023-08-06T03:25:48;95412.56;;;15.76;100.00
2397;BME280;1209;48.410;9.054;2023-08-06T03:28:14;95417.16;;;15.68;100.00
2397;BME280;1209;48.410;9.054;2023-08-06T03:30:39;95423.09;;;15.76;100.00
2397;BME280;1209;48.410;9.054;2023-08-06T03:33:04;95423.78;;;15.71;100.00
2397;BME280;1209;48.410;9.054;2023-08-06T03:35:30;95431.56;;;15.66;100.00
2397;BME280;1209;48.410;9.054;2023-08-06T03:37:55;95421.25;;;15.64;100.00
2397;BME280;1209;48.410;9.054;2023-08-06T03:40:21;95429.63;;;15.61;100.00
2397;BME280;1209;48.410;9.054;2023-08-06T03:42:46;95423.13;;;15.57;100.00
2397;BME280;1209;48.410;9.054;2023-08-06T03:45:11;95431.38;;;15.49;100.00
2397;BME280;1209;48.410;9.054;2023-08-06T03:47:36;95428.59;;;15.44;100.00
2397;BME280;1209;48.410;9.054;2023-08-06T03:50:02;95434.22;;;15.48;100.00
2397;BME280;1209;48.410;9.054;2023-08-06T03:52:27;95431.13;;;15.39;100.00
2397;BME280;1209;48.410;9.054;2023-08-06T03:54:52;95435.34;;;15.40;100.00
2397;BME280;1209;48.410;9.054;2023-08-06T03:57:18;95438.66;;;15.35;100.00
2397;BME280;1209;48.410;9.054;2023-08-06T03:59:43;95443.19;;;15.17;100.00
2397;BME280;1209;48.410;9.054;2023-08-06T04:02:08;95448.00;;;15.20;100.00
2397;BME280;1209;48.410;9.054;2023-08-06T04:04:34;95458.00;;;15.11;100.00
2397;BME280;1209;48.410;9.054;2023-08-06T04:06:59;95454.66;;;15.04;100.00
2397;BME280;1209;48.410;9.054;2023-08-06T04:09:24;95445.56;;;14.88;100.00
2397;BME280;1209;48.410;9.054;2023-08-06T04:11:49;95444.31;;;14.91;100.00
2397;BME280;1209;48.410;9.054;2023-08-06T04:14:15;95448.47;;;14.98;100.00
2397;BME280;1209;48.410;9.054;2023-08-06T04:16:40;95451.81;;;15.05;100.00
2397;BME280;1209;48.410;9.054;2023-08-06T04:19:06;95444.94;;;15.04;100.00
2397;BME280;1209;48.410;9.054;2023-08-06T04:21:32;95437.34;;;14.96;100.00
2397;BME280;1209;48.410;9.054;2023-08-06T04:23:57;95436.28;;;14.86;100.00
2397;BME280;1209;48.410;9.054;2023-08-06T04:26:22;95420.88;;;14.89;100.00
2397;BME280;1209;48.410;9.054;2023-08-06T04:28:47;95425.09;;;14.90;100.00
2397;BME280;1209;48.410;9.054;2023-08-06T04:31:14;95415.34;;;14.79;100.00
2397;BME280;1209;48.410;9.054;2023-08-06T04:33:39;95429.06;;;14.81;100.00
2397;BME280;1209;48.410;9.054;2023-08-06T04:36:04;95439.00;;;14.79;100.00
2397;BME280;1209;48.410;9.054;2023-08-06T04:38:30;95451.69;;;14.64;100.00
2397;BME280;1209;48.410;9.054;2023-08-06T04:40:55;95457.84;;;14.76;100.00
2397;BME280;1209;48.410;9.054;2023-08-06T04:43:20;95459.91;;;14.74;100.00
2397;BME280;1209;48.410;9.054;2023-08-06T04:45:49;95469.03;;;14.71;100.00
2397;BME280;1209;48.410;9.054;2023-08-06T04:48:14;95458.19;;;14.79;100.00
2397;BME280;1209;48.410;9.054;2023-08-06T04:50:46;95460.47;;;14.76;100.00
2397;BME280;1209;48.410;9.054;2023-08-06T04:53:12;95459.16;;;14.85;100.00
2397;BME280;1209;48.410;9.054;2023-08-06T04:55:37;95457.84;;;14.76;100.00
2397;BME280;1209;48.410;9.054;2023-08-06T04:58:03;95452.72;;;14.81;100.00
2397;BME280;1209;48.410;9.054;2023-08-06T05:00:28;95452.16;;;14.79;100.00
2397;BME280;1209;48.410;9.054;2023-08-06T05:02:53;95462.53;;;14.74;100.00
2397;BME280;1209;48.410;9.054;2023-08-06T05:05:18;95459.91;;;14.74;100.00
2397;BME280;1209;48.410;9.054;2023-08-06T05:07:47;95466.66;;;14.82;100.00
2397;BME280;1209;48.410;9.054;2023-08-06T05:10:13;95462.22;;;14.82;100.00
2397;BME280;1209;48.410;9.054;2023-08-06T05:12:38;95451.69;;;14.82;100.00
2397;BME280;1209;48.410;9.054;2023-08-06T05:15:04;95450.75;;;14.76;100.00
2397;BME280;1209;48.410;9.054;2023-08-06T05:17:29;95452.22;;;14.72;100.00
2397;BME280;1209;48.410;9.054;2023-08-06T05:19:55;95452.28;;;14.66;100.00
2397;BME280;1209;48.410;9.054;2023-08-06T05:22:20;95445.41;;;14.65;100.00
2397;BME280;1209;48.410;9.054;2023-08-06T05:24:45;95444.38;;;14.66;100.00
2397;BME280;1209;48.410;9.054;2023-08-06T05:27:11;95425.19;;;14.65;100.00
2397;BME280;1209;48.410;9.054;2023-08-06T05:29:36;95436.81;;;14.58;100.00
2397;BME280;1209;48.410;9.054;2023-08-06T05:32:01;95437.03;;;14.56;100.00
2397;BME280;1209;48.410;9.054;2023-08-06T05:34:27;95453.91;;;14.67;100.00
2397;BME280;1209;48.410;9.054;2023-08-06T05:36:52;95455.44;;;14.74;100.00
2397;BME280;1209;48.410;9.054;2023-08-06T05:39:18;95466.75;;;14.75;100.00
2397;BME280;1209;48.410;9.054;2023-08-06T05:41:43;95459.16;;;14.85;100.00
2397;BME280;1209;48.410;9.054;2023-08-06T05:44:08;95455.41;;;14.93;100.00
2397;BME280;1209;48.410;9.054;2023-08-06T05:46:33;95450.72;;;14.95;100.00
2397;BME280;1209;48.410;9.054;2023-08-06T05:48:59;95456.88;;;14.89;100.00
2397;BME280;1209;48.410;9.054;2023-08-06T05:51:26;95466.38;;;14.90;100.00
2397;BME280;1209;48.410;9.054;2023-08-06T05:53:53;95465.34;;;14.91;100.00
2397;BME280;1209;48.410;9.054;2023-08-06T05:56:18;95471.72;;;14.83;100.00
2397;BME280;1209;48.410;9.054;2023-08-06T05:58:43;95466.00;;;14.86;100.00
2397;BME280;1209;48.410;9.054;2023-08-06T06:01:08;95478.06;;;14.75;100.00
2397;BME280;1209;48.410;9.054;2023-08-06T06:03:34;95466.00;;;14.86;100.00
2397;BME280;1209;48.410;9.054;2023-08-06T06:06:01;95475.50;;;14.87;100.00
2397;BME280;1209;48.410;9.054;2023-08-06T06:08:26;95482.28;;;14.95;100.00
2397;BME280;1209;48.410;9.054;2023-08-06T06:10:51;95468.34;;;14.94;100.00
2397;BME280;1209;48.410;9.054;2023-08-06T06:13:17;95461.38;;;15.00;100.00
2397;BME280;1209;48.410;9.054;2023-08-06T06:15:42;95459.47;;;15.07;100.00
2397;BME280;1209;48.410;9.054;2023-08-06T06:18:07;95462.91;;;15.07;100.00
2397;BME280;1209;48.410;9.054;2023-08-06T06:20:32;95464.28;;;15.10;100.00
2397;BME280;1209;48.410;9.054;2023-08-06T06:22:58;95471.31;;;15.16;100.00
2397;BME280;1209;48.410;9.054;2023-08-06T06:25:24;95470.88;;;15.19;100.00
2397;BME280;1209;48.410;9.054;2023-08-06T06:27:49;95473.13;;;15.16;100.00
2397;BME280;1209;48.410;9.054;2023-08-06T06:30:14;95469.66;;;15.33;100.00
2397;BME280;1209;48.410;9.054;2023-08-06T06:32:40;95471.25;;;15.34;100.00
2397;BME280;1209;48.410;9.054;2023-08-06T06:35:06;95481.66;;;15.29;100.00
2397;BME280;1209;48.410;9.054;2023-08-06T06:37:31;95485.75;;;15.25;100.00
2397;BME280;1209;48.410;9.054;2023-08-06T06:39:56;95486.56;;;15.26;100.00
2397;BME280;1209;48.410;9.054;2023-08-06T06:42:22;95493.41;;;15.27;100.00
2397;BME280;1209;48.410;9.054;2023-08-06T06:44:48;95491.69;;;15.21;100.00
2397;BME280;1209;48.410;9.054;2023-08-06T06:47:13;95488.47;;;15.19;100.00
2397;BME280;1209;48.410;9.054;2023-08-06T06:49:39;95483.78;;;15.21;100.00
2397;BME280;1209;48.410;9.054;2023-08-06T06:52:04;95488.84;;;15.22;100.00
2397;BME280;1209;48.410;9.054;2023-08-06T06:54:30;95491.81;;;15.26;100.00
2397;BME280;1209;48.410;9.054;2023-08-06T06:56:55;95495.91;;;15.22;100.00
2397;BME280;1209;48.410;9.054;2023-08-06T06:59:20;95497.47;;;15.41;100.00
2397;BME280;1209;48.410;9.054;2023-08-06T07:01:46;95487.19;;;15.39;100.00
2397;BME280;1209;48.410;9.054;2023-08-06T07:04:11;95481.91;;;15.39;100.00
2397;BME280;1209;48.410;9.054;2023-08-06T07:06:36;95489.25;;;15.49;100.00
2397;BME280;1209;48.410;9.054;2023-08-06T07:09:02;95492.78;;;15.61;100.00
2397;BME280;1209;48.410;9.054;2023-08-06T07:11:27;95489.13;;;15.62;100.00
2397;BME280;1209;48.410;9.054;2023-08-06T07:13:58;95488.75;;;15.59;100.00
2397;BME280;1209;48.410;9.054;2023-08-06T07:16:24;95496.22;;;15.62;100.00
2397;BME280;1209;48.410;9.054;2023-08-06T07:18:51;95499.75;;;15.37;100.00
2397;BME280;1209;48.410;9.054;2023-08-06T07:21:17;95499.72;;;15.26;100.00
2397;BME280;1209;48.410;9.054;2023-08-06T07:23:43;95509.34;;;15.32;100.00
2397;BME280;1209;48.410;9.054;2023-08-06T07:26:08;95508.09;;;15.34;100.00
2397;BME280;1209;48.410;9.054;2023-08-06T07:28:34;95501.22;;;15.33;100.00
2397;BME280;1209;48.410;9.054;2023-08-06T07:30:59;95510.94;;;15.33;100.00
2397;BME280;1209;48.410;9.054;2023-08-06T07:33:25;95507.88;;;15.36;100.00
2397;BME280;1209;48.410;9.054;2023-08-06T07:35:50;95498.06;;;15.43;100.00
2397;BME280;1209;48.410;9.054;2023-08-06T07:38:15;95511.66;;;15.40;100.00
2397;BME280;1209;48.410;9.054;2023-08-06T07:40:41;95501.97;;;15.52;100.00
2397;BME280;1209;48.410;9.054;2023-08-06T07:43:06;95508.72;;;15.48;100.00
2397;BME280;1209;48.410;9.054;2023-08-06T07:45:35;95499.66;;;15.62;100.00
2397;BME280;1209;48.410;9.054;2023-08-06T07:48:01;95503.88;;;15.63;100.00
2397;BME280;1209;48.410;9.054;2023-08-06T07:50:26;95503.09;;;15.63;100.00
2397;BME280;1209;48.410;9.054;2023-08-06T07:52:51;95507.09;;;15.65;100.00
2397;BME280;1209;48.410;9.054;2023-08-06T07:55:16;95510.88;;;15.69;100.00
2397;BME280;1209;48.410;9.054;2023-08-06T07:57:42;95517.41;;;15.67;100.00
2397;BME280;1209;48.410;9.054;2023-08-06T08:00:07;95523.72;;;15.78;100.00
2397;BME280;1209;48.410;9.054;2023-08-06T08:02:34;95521.66;;;15.80;100.00
2397;BME280;1209;48.410;9.054;2023-08-06T08:04:59;95510.75;;;15.64;100.00
2397;BME280;1209;48.410;9.054;2023-08-06T08:07:25;95513.22;;;15.59;100.00
2397;BME280;1209;48.410;9.054;2023-08-06T08:09:52;95513.03;;;15.61;100.00
2397;BME280;1209;48.410;9.054;2023-08-06T08:12:18;95525.75;;;15.46;100.00
2397;BME280;1209;48.410;9.054;2023-08-06T08:14:43;95524.72;;;15.47;100.00
2397;BME280;1209;48.410;9.054;2023-08-06T08:17:10;95529.63;;;15.43;100.00
2397;BME280;1209;48.410;9.054;2023-08-06T08:19:36;95534.84;;;15.31;100.00
2397;BME280;1209;48.410;9.054;2023-08-06T08:22:01;95525.25;;;15.37;100.00
2397;BME280;1209;48.410;9.054;2023-08-06T08:24:26;95518.88;;;15.15;100.00
2397;BME280;1209;48.410;9.054;2023-08-06T08:26:52;95523.38;;;15.26;100.00
2397;BME280;1209;48.410;9.054;2023-08-06T08:29:19;95515.94;;;15.23;100.00
2397;BME280;1209;48.410;9.054;2023-08-06T08:31:45;95525.53;;;15.17;100.00
2397;BME280;1209;48.410;9.054;2023-08-06T08:34:10;95525.94;;;15.32;100.00
2397;BME280;1209;48.410;9.054;2023-08-06T08:36:36;95519.41;;;15.35;100.00
2397;BME280;1209;48.410;9.054;2023-08-06T08:39:01;95515.34;;;15.21;100.00
2397;BME280;1209;48.410;9.054;2023-08-06T08:41:30;95525.00;;;15.08;100.00
2397;BME280;1209;48.410;9.054;2023-08-06T08:43:58;95524.78;;;15.10;100.00
2397;BME280;1209;48.410;9.054;2023-08-06T08:46:31;95531.72;;;15.04;100.00
2397;BME280;1209;48.410;9.054;2023-08-06T08:48:59;95531.22;;;15.14;100.00
2397;BME280;1209;48.410;9.054;2023-08-06T08:51:25;95530.56;;;15.19;100.00
2397;BME280;1209;48.410;9.054;2023-08-06T08:53:53;95533.69;;;15.09;100.00
2397;BME280;1209;48.410;9.054;2023-08-06T08:56:21;95545.31;;;15.01;100.00
2397;BME280;1209;48.410;9.054;2023-08-06T08:58:46;95545.00;;;15.09;100.00
2397;BME280;1209;48.410;9.054;2023-08-06T09:01:13;95536.25;;;14.97;100.00
2397;BME280;1209;48.410;9.054;2023-08-06T09:03:40;95545.66;;;15.05;100.00
2397;BME280;1209;48.410;9.054;2023-08-06T09:06:05;95543.19;;;15.10;100.00
2397;BME280;1209;48.410;9.054;2023-08-06T09:08:36;95554.50;;;15.10;100.00
2397;BME280;1209;48.410;9.054;2023-08-06T09:11:04;95570.16;;;15.24;100.00
2397;BME280;1209;48.410;9.054;2023-08-06T09:13:30;95561.97;;;15.32;100.00
2397;BME280;1209;48.410;9.054;2023-08-06T09:15:55;95564.44;;;15.27;100.00
2397;BME280;1209;48.410;9.054;2023-08-06T09:18:27;95567.97;;;15.21;100.00
2397;BME280;1209;48.410;9.054;2023-08-06T09:20:58;95571.03;;;15.18;100.00
2397;BME280;1209;48.410;9.054;2023-08-06T09:23:30;95572.78;;;15.24;100.00
2397;BME280;1209;48.410;9.054;2023-08-06T09:25:57;95573.06;;;15.34;100.00
2397;BME280;1209;48.410;9.054;2023-08-06T09:28:22;95573.50;;;15.31;100.00
2397;BME280;1209;48.410;9.054;2023-08-06T09:30:49;95576.09;;;15.49;100.00
2397;BME280;1209;48.410;9.054;2023-08-06T09:33:18;95567.06;;;15.63;100.00
2397;BME280;1209;48.410;9.054;2023-08-06T09:35:46;95568.34;;;15.72;100.00
2397;BME280;1209;48.410;9.054;2023-08-06T09:38:11;95572.38;;;15.75;100.00
2397;BME280;1209;48.410;9.054;2023-08-06T09:40:37;95568.31;;;15.61;100.00
2397;BME280;1209;48.410;9.054;2023-08-06T09:43:03;95562.94;;;15.49;100.00
2397;BME280;1209;48.410;9.054;2023-08-06T09:45:34;95582.59;;;15.17;100.00
2397;BME280;1209;48.410;9.054;2023-08-06T09:48:02;95576.75;;;15.15;100.00
2397;BME280;1209;48.410;9.054;2023-08-06T09:50:32;95589.09;;;15.14;100.00
2397;BME280;1209;48.410;9.054;2023-08-06T09:52:58;95581.69;;;15.04;100.00
2397;BME280;1209;48.410;9.054;2023-08-06T09:55:24;95587.44;;;15.13;100.00
2397;BME280;1209;48.410;9.054;2023-08-06T09:57:52;95590.22;;;15.00;100.00
2397;BME280;1209;48.410;9.054;2023-08-06T10:00:18;95592.34;;;15.09;100.00
2397;BME280;1209;48.410;9.054;2023-08-06T10:02:45;95595.78;;;15.10;100.00
2397;BME280;1209;48.410;9.054;2023-08-06T10:05:10;95597.47;;;15.04;100.00
2397;BME280;1209;48.410;9.054;2023-08-06T10:07:36;95590.16;;;14.88;100.00
2397;BME280;1209;48.410;9.054;2023-08-06T10:10:05;95596.44;;;14.87;100.00
2397;BME280;1209;48.410;9.054;2023-08-06T10:12:39;95590.16;;;14.88;100.00
2397;BME280;1209;48.410;9.054;2023-08-06T10:15:09;95594.16;;;14.72;100.00
2397;BME280;1209;48.410;9.054;2023-08-06T10:17:36;95581.88;;;14.66;100.00
2397;BME280;1209;48.410;9.054;2023-08-06T10:20:04;95583.81;;;14.53;100.00
2397;BME280;1209;48.410;9.054;2023-08-06T10:22:32;95583.09;;;14.64;100.00
2397;BME280;1209;48.410;9.054;2023-08-06T10:24:59;95581.06;;;14.66;100.00
2397;BME280;1209;48.410;9.054;2023-08-06T10:27:53;95589.72;;;14.73;100.00
2397;BME280;1209;48.410;9.054;2023-08-06T10:30:33;95598.53;;;14.78;100.00
2397;BME280;1209;48.410;9.054;2023-08-06T10:33:03;95600.44;;;14.71;100.00
2397;BME280;1209;48.410;9.054;2023-08-06T10:38:08;95601.31;;;14.84;100.00
2397;BME280;1209;48.410;9.054;2023-08-06T10:40:43;95604.97;;;14.83;100.00
2397;BME280;1209;48.410;9.054;2023-08-06T10:43:25;95611.34;;;14.93;100.00
2397;BME280;1209;48.410;9.054;2023-08-06T10:45:52;95618.06;;;14.89;100.00
2397;BME280;1209;48.410;9.054;2023-08-06T10:48:38;95622.59;;;15.00;100.00
2397;BME280;1209;48.410;9.054;2023-08-06T10:51:08;95627.78;;;15.07;100.00
2397;BME280;1209;48.410;9.054;2023-08-06T10:53:33;95626.47;;;14.98;100.00
2397;BME280;1209;48.410;9.054;2023-08-06T10:55:59;95624.69;;;14.92;100.00
2397;BME280;1209;48.410;9.054;2023-08-06T10:58:25;95617.53;;;14.80;100.00
2397;BME280;1209;48.410;9.054;2023-08-06T11:00:51;95617.84;;;14.66;100.00
2397;BME280;1209;48.410;9.054;2023-08-06T11:03:16;95627.03;;;14.82;100.00
2397;BME280;1209;48.410;9.054;2023-08-06T11:05:48;95630.47;;;14.82;100.00
2397;BME280;1209;48.410;9.054;2023-08-06T11:08:25;95631.34;;;14.94;100.00
2397;BME280;1209;48.410;9.054;2023-08-06T11:10:50;95634.41;;;14.91;100.00
2397;BME280;1209;48.410;9.054;2023-08-06T11:13:18;95629.72;;;14.75;100.00
2397;BME280;1209;48.410;9.054;2023-08-06T11:15:45;95635.13;;;14.80;100.00
2397;BME280;1209;48.410;9.054;2023-08-06T11:18:10;95638.72;;;14.86;100.00
2397;BME280;1209;48.410;9.054;2023-08-06T11:20:36;95637.13;;;15.03;100.00
2397;BME280;1209;48.410;9.054;2023-08-06T11:23:02;95638.84;;;15.16;100.00
2397;BME280;1209;48.410;9.054;2023-08-06T11:25:28;95646.72;;;15.16;100.00
2397;BME280;1209;48.410;9.054;2023-08-06T11:27:54;95646.50;;;15.17;100.00
2397;BME280;1209;48.410;9.054;2023-08-06T11:30:19;95651.59;;;15.12;100.00
2397;BME280;1209;48.410;9.054;2023-08-06T11:32:46;95648.72;;;14.95;100.00
2397;BME280;1209;48.410;9.054;2023-08-06T11:35:12;95649.09;;;14.99;100.00
2397;BME280;1209;48.410;9.054;2023-08-06T11:37:39;95654.78;;;14.96;100.00
2397;BME280;1209;48.410;9.054;2023-08-06T11:40:08;95655.44;;;14.91;100.00
2397;BME280;1209;48.410;9.054;2023-08-06T11:42:36;95662.84;;;15.01;100.00
2397;BME280;1209;48.410;9.054;2023-08-06T11:45:02;95670.22;;;15.10;100.00
2397;BME280;1209;48.410;9.054;2023-08-06T11:47:28;95675.06;;;15.14;100.00
2397;BME280;1209;48.410;9.054;2023-08-06T11:49:53;95675.91;;;15.07;100.00
2397;BME280;1209;48.410;9.054;2023-08-06T11:52:21;95668.25;;;15.06;100.00
2397;BME280;1209;48.410;9.054;2023-08-06T11:55:03;95669.16;;;15.18;100.00
2397;BME280;1209;48.410;9.054;2023-08-06T11:57:30;95666.53;;;15.18;100.00
2397;BME280;1209;48.410;9.054;2023-08-06T12:00:01;95675.47;;;15.10;100.00
2397;BME280;1209;48.410;9.054;2023-08-06T12:02:31;95673.06;;;15.09;100.00
2397;BME280;1209;48.410;9.054;2023-08-06T12:07:44;95689.34;;;15.24;100.00
2397;BME280;1209;48.410;9.054;2023-08-06T12:10:10;95688.81;;;15.16;100.00
2397;BME280;1209;48.410;9.054;2023-08-06T12:12:36;95696.75;;;15.09;100.00
2397;BME280;1209;48.410;9.054;2023-08-06T12:15:03;95691.22;;;14.92;100.00
2397;BME280;1209;48.410;9.054;2023-08-06T12:17:29;95699.03;;;14.80;100.00
2397;BME280;1209;48.410;9.054;2023-08-06T12:19:54;95713.28;;;14.91;100.00
2397;BME280;1209;48.410;9.054;2023-08-06T12:22:19;95722.84;;;14.86;100.00
2397;BME280;1209;48.410;9.054;2023-08-06T12:24:46;95733.94;;;14.88;100.00
2397;BME280;1209;48.410;9.054;2023-08-06T12:27:12;95736.03;;;14.79;100.00
2397;BME280;1209;48.410;9.054;2023-08-06T12:29:42;95739.53;;;14.98;100.00
2397;BME280;1209;48.410;9.054;2023-08-06T12:32:09;95732.09;;;15.13;100.00
2397;BME280;1209;48.410;9.054;2023-08-06T12:34:34;95741.00;;;15.19;100.00
2397;BME280;1209;48.410;9.054;2023-08-06T12:36:59;95737.66;;;15.30;100.00
2397;BME280;1209;48.410;9.054;2023-08-06T12:39:25;95727.56;;;15.27;100.00
2397;BME280;1209;48.410;9.054;2023-08-06T12:41:53;95739.56;;;15.41;100.00
2397;BME280;1209;48.410;9.054;2023-08-06T12:44:18;95748.53;;;15.33;100.00
2397;BME280;1209;48.410;9.054;2023-08-06T12:46:44;95744.44;;;15.19;100.00
2397;BME280;1209;48.410;9.054;2023-08-06T12:49:09;95730.94;;;15.34;100.00
2397;BME280;1209;48.410;9.054;2023-08-06T12:51:34;95742.75;;;15.25;100.00
2397;BME280;1209;48.410;9.054;2023-08-06T12:54:00;95744.50;;;15.31;100.00
2397;BME280;1209;48.410;9.054;2023-08-06T12:56:25;95745.56;;;15.48;100.00
2397;BME280;1209;48.410;9.054;2023-08-06T12:58:50;95741.47;;;15.52;100.00
2397;BME280;1209;48.410;9.054;2023-08-06T13:01:16;95745.25;;;15.38;100.00
2397;BME280;1209;48.410;9.054;2023-08-06T13:03:41;95755.63;;;15.33;100.00
2397;BME280;1209;48.410;9.054;2023-08-06T13:06:06;95746.84;;;15.39;100.00
2397;BME280;1209;48.410;9.054;2023-08-06T13:08:32;95760.31;;;15.31;100.00
2397;BME280;1209;48.410;9.054;2023-08-06T13:10:58;95760.44;;;15.11;100.00
2397;BME280;1209;48.410;9.054;2023-08-06T13:13:23;95760.63;;;14.91;100.00
2397;BME280;1209;48.410;9.054;2023-08-06T13:15:51;95757.59;;;15.12;100.00